Time;durP1;ratioP1;P1;durP2;ratioP2;P2;SDS_P1;SDS_P2;PMS_P1;PMS_P2;Temp;Humidity;BMP_temperature;BMP_pressure;BME280_temperature;BME280_humidity;BME280_pressure;Samples;Min_cycle;Max_cycle;Signal;HPM_P1;HPM_P2
2022/03/23 00:01:34;;;;;;;21.60;17.73;;;3.80;99.90;;;;;;5049473;28;20447;-67
2022/03/23 00:04:01;;;;;;;24.93;17.90;;;3.90;99.90;;;;;;5049242;28;20444;-67
2022/03/23 00:06:27;;;;;;;23.67;16.60;;;4.00;99.90;;;;;;5049615;28;20455;-67
2022/03/23 00:08:54;;;;;;;17.73;15.33;;;4.00;99.90;;;;;;5050101;28;20467;-67
2022/03/23 00:11:23;;;;;;;17.80;14.70;;;4.10;99.90;;;;;;5049520;28;20980;-66
2022/03/23 00:13:49;;;;;;;18.73;13.47;;;4.00;99.90;;;;;;5049139;28;20490;-67
2022/03/23 00:16:16;;;;;;;17.30;14.23;;;4.00;99.90;;;;;;5048966;28;20542;-67
2022/03/23 00:18:43;;;;;;;17.43;13.93;;;3.90;99.90;;;;;;5049051;28;20467;-67
2022/03/23 00:21:10;;;;;;;22.60;16.30;;;3.90;99.90;;;;;;5049437;28;21248;-66
2022/03/23 00:23:37;;;;;;;25.40;18.00;;;3.80;99.90;;;;;;5048996;28;20444;-67
2022/03/23 00:26:04;;;;;;;17.77;14.57;;;3.70;99.90;;;;;;5048752;28;20958;-67
2022/03/23 00:28:32;;;;;;;22.50;15.50;;;3.50;99.90;;;;;;5049240;28;20554;-65
2022/03/23 00:30:59;;;;;;;16.50;14.13;;;3.40;99.90;;;;;;5049812;28;20482;-67
2022/03/23 00:33:26;;;;;;;19.00;15.20;;;3.40;99.90;;;;;;5049026;28;20494;-66
2022/03/23 00:35:53;;;;;;;17.97;14.07;;;3.40;99.90;;;;;;5048837;28;20451;-67
2022/03/23 00:38:20;;;;;;;17.33;13.63;;;3.50;99.90;;;;;;5049483;28;20985;-67
2022/03/23 00:40:47;;;;;;;15.63;12.60;;;3.50;99.90;;;;;;5049555;28;20501;-67
2022/03/23 00:43:14;;;;;;;16.00;13.83;;;3.50;99.90;;;;;;5049164;28;20534;-67
2022/03/23 00:45:43;;;;;;;16.53;11.77;;;3.40;99.90;;;;;;5048802;28;20455;-67
2022/03/23 00:48:10;;;;;;;13.63;11.40;;;3.30;99.90;;;;;;5049513;28;20998;-67
2022/03/23 00:50:38;;;;;;;14.80;12.40;;;3.20;99.90;;;;;;5049621;28;20827;-67
2022/03/23 00:53:05;;;;;;;18.60;12.60;;;3.10;99.90;;;;;;5049535;28;20475;-67
2022/03/23 00:55:32;;;;;;;16.70;13.70;;;3.10;99.90;;;;;;5048783;28;20447;-67
2022/03/23 00:57:58;;;;;;;17.47;13.63;;;3.00;99.90;;;;;;5049576;28;20468;-67
2022/03/23 01:00:25;;;;;;;16.00;12.50;;;3.00;99.90;;;;;;5049504;28;20858;-68
2022/03/23 01:02:54;;;;;;;19.80;13.73;;;2.90;99.90;;;;;;5049007;28;20949;-67
2022/03/23 01:05:21;;;;;;;16.07;12.13;;;3.00;99.90;;;;;;5048640;28;20452;-66
2022/03/23 01:07:47;;;;;;;14.97;13.20;;;3.00;99.90;;;;;;5048798;28;20551;-66
2022/03/23 01:10:15;;;;;;;16.77;13.93;;;2.90;99.90;;;;;;5048807;28;20451;-67
2022/03/23 01:12:43;;;;;;;27.30;13.03;;;2.80;99.90;;;;;;5049047;28;20448;-66
2022/03/23 01:15:12;;;;;;;20.60;14.40;;;2.70;99.90;;;;;;5048575;28;21039;-66
2022/03/23 01:17:39;;;;;;;23.60;15.20;;;2.70;99.90;;;;;;5049197;28;21062;-66
2022/03/23 01:20:10;;;;;;;16.37;14.37;;;2.80;99.90;;;;;;5049073;28;20444;-67
2022/03/23 01:22:37;;;;;;;22.30;14.33;;;2.80;99.90;;;;;;5048572;28;20826;-65
2022/03/23 01:25:04;;;;;;;20.57;15.53;;;2.90;99.90;;;;;;5048426;28;20526;-66
2022/03/23 01:27:31;;;;;;;19.40;14.97;;;2.90;99.90;;;;;;5049084;28;20448;-66
2022/03/23 01:29:58;;;;;;;20.03;14.50;;;2.80;99.90;;;;;;5050377;28;20968;-66
2022/03/23 01:32:25;;;;;;;23.30;15.00;;;2.70;99.90;;;;;;5052301;28;20567;-67
2022/03/23 01:34:52;;;;;;;17.33;12.70;;;2.70;99.90;;;;;;5051806;28;20566;-66
2022/03/23 01:37:20;;;;;;;22.60;16.00;;;2.50;99.90;;;;;;5052417;28;20684;-66
2022/03/23 01:39:47;;;;;;;14.67;13.13;;;2.60;99.90;;;;;;5052317;28;20440;-66
2022/03/23 01:42:14;;;;;;;19.80;14.80;;;2.60;99.90;;;;;;5051872;28;20456;-66
2022/03/23 01:44:41;;;;;;;21.17;15.33;;;2.50;99.90;;;;;;5051516;28;20444;-66
2022/03/23 01:47:09;;;;;;;20.00;15.17;;;2.50;99.90;;;;;;5052015;28;20543;-65
2022/03/23 01:49:39;;;;;;;20.70;14.67;;;2.50;99.90;;;;;;5052041;28;20472;-68
2022/03/23 01:52:08;;;;;;;19.50;13.90;;;2.50;99.90;;;;;;5052002;28;20463;-66
2022/03/23 01:54:38;;;;;;;18.03;13.57;;;2.50;99.90;;;;;;5051441;28;20484;-66
2022/03/23 01:57:07;;;;;;;19.10;14.90;;;2.40;99.90;;;;;;5052219;28;20451;-66
2022/03/23 01:59:34;;;;;;;19.00;14.73;;;2.40;99.90;;;;;;5051710;28;20536;-66
2022/03/23 02:02:01;;;;;;;14.93;13.27;;;2.30;99.90;;;;;;5051418;28;20452;-67
2022/03/23 02:04:28;;;;;;;18.20;13.70;;;2.20;99.90;;;;;;5051281;28;20990;-66
2022/03/23 02:06:55;;;;;;;19.67;14.10;;;2.20;99.90;;;;;;5051949;28;20530;-66
2022/03/23 02:09:22;;;;;;;16.53;13.20;;;2.30;99.90;;;;;;5051834;28;20468;-66
2022/03/23 02:11:52;;;;;;;19.00;14.97;;;2.30;99.90;;;;;;5051562;28;20502;-65
2022/03/23 02:14:19;;;;;;;15.70;13.33;;;2.30;99.90;;;;;;5051100;28;20472;-66
2022/03/23 02:16:48;;;;;;;18.70;13.80;;;2.20;99.90;;;;;;5051675;28;20564;-65
2022/03/23 02:19:15;;;;;;;18.33;13.50;;;2.00;99.90;;;;;;5051855;28;20917;-65
2022/03/23 02:21:44;;;;;;;17.70;13.33;;;2.00;99.90;;;;;;5051611;28;20494;-65
2022/03/23 02:24:11;;;;;;;20.40;14.37;;;2.00;99.90;;;;;;5050562;28;20444;-66
2022/03/23 02:26:39;;;;;;;17.77;13.20;;;1.90;99.90;;;;;;5051509;28;20834;-66
2022/03/23 02:29:06;;;;;;;18.93;13.00;;;1.80;99.90;;;;;;5051472;28;20547;-66
2022/03/23 02:31:33;;;;;;;19.60;13.17;;;1.80;99.90;;;;;;5051779;28;20448;-65
2022/03/23 02:34:00;;;;;;;20.30;13.03;;;1.90;99.90;;;;;;5051498;28;20486;-66
2022/03/23 02:36:26;;;;;;;15.00;11.47;;;1.90;99.90;;;;;;5051533;28;20551;-66
2022/03/23 02:38:55;;;;;;;15.67;13.10;;;1.80;99.90;;;;;;5051515;28;20495;-66
2022/03/23 02:41:22;;;;;;;17.57;12.60;;;1.80;99.90;;;;;;5051067;28;20450;-66
2022/03/23 02:43:49;;;;;;;16.80;12.20;;;1.80;99.90;;;;;;5051055;28;20485;-66
2022/03/23 02:46:19;;;;;;;15.43;11.97;;;1.80;99.90;;;;;;5050697;28;20451;-66
2022/03/23 02:48:46;;;;;;;14.90;12.50;;;1.80;99.90;;;;;;5051156;28;20471;-66
2022/03/23 02:51:14;;;;;;;17.17;11.80;;;2.00;99.90;;;;;;5051170;28;20938;-66
2022/03/23 03:02:18;;;;;;;15.77;12.47;;;1.90;99.90;;;;;;5050735;28;20415;-66
2022/03/23 03:04:45;;;;;;;19.53;13.10;;;2.00;99.90;;;;;;5050439;28;20753;-66
2022/03/23 03:07:12;;;;;;;16.43;11.50;;;1.90;99.90;;;;;;5051267;28;20443;-66
2022/03/23 03:09:40;;;;;;;17.60;12.77;;;1.90;99.90;;;;;;5051492;28;20503;-66
2022/03/23 03:12:10;;;;;;;14.40;11.47;;;1.90;99.90;;;;;;5052266;28;21000;-66
2022/03/23 03:14:37;;;;;;;14.70;11.50;;;1.80;99.90;;;;;;5050624;28;20475;-66
2022/03/23 03:17:04;;;;;;;13.70;11.67;;;1.80;99.90;;;;;;5051350;28;20476;-66
2022/03/23 03:19:31;;;;;;;16.07;12.33;;;1.70;99.90;;;;;;5051046;28;20460;-66
2022/03/23 03:21:58;;;;;;;17.20;11.97;;;1.70;99.90;;;;;;5050919;28;20439;-66
2022/03/23 03:24:25;;;;;;;15.07;12.00;;;1.70;99.90;;;;;;5049904;28;20476;-66
2022/03/23 03:26:52;;;;;;;13.60;12.20;;;1.60;99.90;;;;;;5050465;28;20459;-66
2022/03/23 03:29:22;;;;;;;16.60;13.33;;;1.50;99.90;;;;;;5050288;28;20550;-66
2022/03/23 03:35:12;;;;;;;16.50;12.30;;;1.40;99.90;;;;;;5076492;22;20498;-65
2022/03/23 03:37:39;;;;;;;17.23;13.57;;;1.40;99.90;;;;;;5073742;28;20459;-65
2022/03/23 03:40:08;;;;;;;15.30;12.73;;;1.50;99.90;;;;;;5075246;28;20453;-65
2022/03/23 03:42:36;;;;;;;16.00;12.20;;;1.60;99.90;;;;;;5073034;28;20451;-64
2022/03/23 03:45:05;;;;;;;14.40;10.97;;;1.50;99.90;;;;;;5072959;28;20996;-65
2022/03/23 03:47:31;;;;;;;14.47;11.87;;;1.30;99.90;;;;;;5074585;28;20439;-65
2022/03/23 03:49:59;;;;;;;17.60;12.73;;;1.40;99.90;;;;;;5074411;28;20522;-65
2022/03/23 03:52:26;;;;;;;18.27;13.73;;;1.40;99.90;;;;;;5072823;28;20450;-65
2022/03/23 03:54:53;;;;;;;16.10;12.60;;;1.40;99.90;;;;;;5072543;28;20478;-65
2022/03/23 03:57:20;;;;;;;18.47;14.10;;;1.40;99.90;;;;;;5074650;28;20466;-65
2022/03/23 03:59:46;;;;;;;18.40;14.23;;;1.40;99.90;;;;;;5074133;28;20453;-65
2022/03/23 04:02:15;;;;;;;15.67;13.20;;;1.40;99.90;;;;;;5073642;28;20498;-65
2022/03/23 04:04:42;;;;;;;17.63;12.30;;;1.40;99.90;;;;;;5073567;28;20546;-64
2022/03/23 04:07:09;;;;;;;18.27;12.90;;;1.40;99.90;;;;;;5073497;28;20486;-65
2022/03/23 04:09:36;;;;;;;17.80;13.70;;;1.40;99.90;;;;;;5074136;28;20489;-65
2022/03/23 04:12:03;;;;;;;21.00;13.00;;;1.40;99.90;;;;;;5073325;28;21024;-64
2022/03/23 04:14:30;;;;;;;19.47;13.70;;;1.40;99.90;;;;;;5072420;28;20574;-65
2022/03/23 04:16:57;;;;;;;15.37;12.73;;;1.40;99.90;;;;;;5073794;28;20447;-65
2022/03/23 04:19:25;;;;;;;17.17;11.50;;;1.40;99.90;;;;;;5073629;28;20457;-65
2022/03/23 04:21:52;;;;;;;17.13;12.83;;;1.40;99.90;;;;;;5073426;28;20451;-65
2022/03/23 04:24:19;;;;;;;17.47;12.70;;;1.40;99.90;;;;;;5072636;28;20451;-65
2022/03/23 04:26:46;;;;;;;16.50;12.30;;;1.50;99.90;;;;;;5073265;28;20538;-65
2022/03/23 04:29:13;;;;;;;19.90;13.30;;;1.50;99.90;;;;;;5073633;28;20832;-64
2022/03/23 04:31:40;;;;;;;15.53;12.60;;;1.40;99.90;;;;;;5073739;28;20455;-65
2022/03/23 04:34:07;;;;;;;15.20;11.17;;;1.40;99.90;;;;;;5072157;28;20488;-65
2022/03/23 04:36:35;;;;;;;17.67;13.07;;;1.40;99.90;;;;;;5073324;28;20435;-65
2022/03/23 04:39:02;;;;;;;18.33;13.10;;;1.40;99.90;;;;;;5073045;28;20454;-65
2022/03/23 04:41:29;;;;;;;15.83;13.10;;;1.30;99.90;;;;;;5073085;28;20481;-65
2022/03/23 04:43:56;;;;;;;16.60;12.00;;;1.20;99.90;;;;;;5072163;28;20451;-65
2022/03/23 04:46:23;;;;;;;17.60;13.40;;;1.00;99.90;;;;;;5072451;28;21022;-64
2022/03/23 04:48:49;;;;;;;16.07;13.43;;;1.00;99.90;;;;;;5071257;28;20454;-64
2022/03/23 04:51:16;;;;;;;18.57;13.90;;;1.00;99.90;;;;;;5072880;28;20455;-65
2022/03/23 04:53:45;;;;;;;17.07;13.10;;;1.00;99.90;;;;;;5073139;28;20446;-65
2022/03/23 04:56:12;;;;;;;18.47;14.00;;;1.00;99.90;;;;;;5072939;28;20550;-64
2022/03/23 04:58:42;;;;;;;20.43;13.47;;;1.00;99.90;;;;;;5072962;28;20443;-65
2022/03/23 05:01:09;;;;;;;15.37;13.60;;;0.90;99.90;;;;;;5073572;28;20530;-65
2022/03/23 05:03:36;;;;;;;16.23;12.40;;;0.90;99.90;;;;;;5073714;28;20461;-65
2022/03/23 05:06:03;;;;;;;17.27;13.20;;;0.90;99.90;;;;;;5076172;28;20550;-65
2022/03/23 05:08:30;;;;;;;20.40;12.70;;;0.90;99.90;;;;;;5077733;28;20443;-65
2022/03/23 05:10:58;;;;;;;18.80;13.63;;;0.90;99.90;;;;;;5077130;28;20551;-66
2022/03/23 05:13:25;;;;;;;16.50;12.20;;;1.00;99.90;;;;;;5076823;28;20438;-65
2022/03/23 05:15:52;;;;;;;17.93;13.93;;;1.00;99.90;;;;;;5076369;28;20875;-66
2022/03/23 05:18:19;;;;;;;19.90;12.70;;;1.00;99.90;;;;;;5077748;28;20506;-66
2022/03/23 05:20:46;;;;;;;18.70;12.17;;;1.00;99.90;;;;;;5077158;28;20511;-65
2022/03/23 05:23:13;;;;;;;17.70;12.60;;;1.00;99.90;;;;;;5075915;28;20451;-65
2022/03/23 05:25:40;;;;;;;17.10;12.87;;;1.00;99.90;;;;;;5076296;28;20467;-66
2022/03/23 05:28:09;;;;;;;16.27;13.07;;;0.90;99.90;;;;;;5077666;28;20510;-65
2022/03/23 05:30:36;;;;;;;15.37;12.20;;;0.90;99.90;;;;;;5077675;28;20451;-65
2022/03/23 05:33:04;;;;;;;15.97;13.23;;;0.90;99.90;;;;;;5077910;28;20447;-65
2022/03/23 05:35:31;;;;;;;16.03;13.43;;;0.90;99.90;;;;;;5074910;28;20490;-64
2022/03/23 05:37:58;;;;;;;16.90;12.90;;;0.90;99.90;;;;;;5075761;28;20451;-65
2022/03/23 05:40:25;;;;;;;16.60;12.67;;;0.90;99.90;;;;;;5077031;28;20470;-68
2022/03/23 05:42:53;;;;;;;17.70;14.13;;;0.90;99.90;;;;;;5072021;28;20447;-68
2022/03/23 05:45:21;;;;;;;15.17;11.77;;;1.00;99.90;;;;;;5072578;28;20519;-66
2022/03/23 05:47:49;;;;;;;17.53;11.40;;;1.00;99.90;;;;;;5077952;28;20439;-63
2022/03/23 05:50:16;;;;;;;18.67;12.67;;;1.10;99.90;;;;;;5072993;28;20463;-67
2022/03/23 05:52:43;;;;;;;14.87;11.70;;;1.10;99.90;;;;;;5068572;28;20539;-66
2022/03/23 05:55:10;;;;;;;17.67;13.03;;;1.20;99.90;;;;;;5070304;28;20923;-67
2022/03/23 05:57:39;;;;;;;19.53;13.40;;;1.20;99.90;;;;;;5071680;28;20452;-65
2022/03/23 06:00:07;;;;;;;16.03;12.30;;;1.10;99.90;;;;;;5070503;28;20455;-65
2022/03/23 06:02:36;;;;;;;20.23;13.13;;;1.30;99.90;;;;;;5077481;28;20477;-65
2022/03/23 06:05:03;;;;;;;15.40;12.83;;;1.40;99.90;;;;;;5077556;28;20519;-65
2022/03/23 06:07:29;;;;;;;17.33;13.97;;;1.50;99.90;;;;;;5077917;28;20450;-64
2022/03/23 06:09:56;;;;;;;16.70;12.60;;;1.50;99.90;;;;;;5077138;28;20475;-64
2022/03/23 06:12:23;;;;;;;16.43;12.73;;;1.60;99.90;;;;;;5076004;28;20474;-65
2022/03/23 06:14:51;;;;;;;20.10;13.90;;;1.60;99.90;;;;;;5076393;28;20489;-65
2022/03/23 06:17:17;;;;;;;14.13;12.63;;;1.60;99.90;;;;;;5079545;28;20444;-64
2022/03/23 06:19:46;;;;;;;16.30;12.63;;;1.60;99.90;;;;;;5079451;28;20475;-65
2022/03/23 06:22:12;;;;;;;20.10;12.93;;;1.70;99.90;;;;;;5077834;28;20530;-65
2022/03/23 06:24:39;;;;;;;15.07;11.80;;;1.80;99.90;;;;;;5074426;28;20550;-66
2022/03/23 06:27:06;;;;;;;14.17;12.20;;;1.90;99.90;;;;;;5071528;28;20896;-65
2022/03/23 06:29:33;;;;;;;17.67;12.80;;;2.00;99.90;;;;;;5073481;28;20447;-65
2022/03/23 06:32:00;;;;;;;17.73;12.80;;;2.10;99.90;;;;;;5077189;28;20824;-63
2022/03/23 06:34:27;;;;;;;15.13;12.93;;;2.20;99.90;;;;;;5074639;28;20471;-65
2022/03/23 06:36:55;;;;;;;15.43;11.87;;;2.20;99.90;;;;;;5076477;28;20449;-65
2022/03/23 06:39:22;;;;;;;17.37;13.50;;;2.30;99.90;;;;;;5075903;28;20530;-65
2022/03/23 06:41:49;;;;;;;19.30;12.20;;;2.30;99.90;;;;;;5075215;28;21138;-65
2022/03/23 06:44:15;;;;;;;17.93;13.27;;;2.60;99.90;;;;;;5072428;28;21216;-66
2022/03/23 06:46:43;;;;;;;17.80;12.93;;;2.70;99.90;;;;;;5075478;28;20451;-66
2022/03/23 06:49:09;;;;;;;20.20;13.87;;;2.90;99.90;;;;;;5075563;28;21103;-65
2022/03/23 06:51:36;;;;;;;17.57;13.07;;;2.90;99.90;;;;;;5074752;28;20526;-66
2022/03/23 06:54:05;;;;;;;18.27;13.67;;;3.00;99.90;;;;;;5071758;28;20525;-65
2022/03/23 06:56:32;;;;;;;16.40;13.43;;;3.20;99.90;;;;;;5074542;28;20483;-66
2022/03/23 06:58:59;;;;;;;18.13;14.67;;;3.30;99.90;;;;;;5071649;28;20932;-66
2022/03/23 07:01:26;;;;;;;16.20;13.73;;;3.40;99.90;;;;;;5071979;28;20451;-66
2022/03/23 07:03:52;;;;;;;20.00;15.80;;;3.60;99.90;;;;;;5070275;28;20462;-66
2022/03/23 07:06:19;;;;;;;23.20;17.37;;;3.70;99.90;;;;;;5067724;28;20482;-65
2022/03/23 07:11:32;;;;;;;22.47;16.93;;;3.90;99.90;;;;;;5068871;28;20446;-66
2022/03/23 07:13:59;;;;;;;24.00;16.27;;;4.10;99.90;;;;;;5071431;28;20457;-67
2022/03/23 07:16:28;;;;;;;22.43;17.03;;;4.30;99.90;;;;;;5072410;28;20487;-66
2022/03/23 07:18:55;;;;;;;25.33;17.37;;;4.40;99.90;;;;;;5072475;28;20443;-65
2022/03/23 07:21:22;;;;;;;21.20;16.20;;;4.60;99.90;;;;;;5071595;28;20454;-66
2022/03/23 07:23:48;;;;;;;22.77;17.70;;;4.70;99.90;;;;;;5070902;28;20967;-65
2022/03/23 07:26:16;;;;;;;22.80;18.23;;;4.80;99.90;;;;;;5070530;28;20540;-65
2022/03/23 07:28:45;;;;;;;22.83;18.40;;;5.00;99.90;;;;;;5070490;28;20443;-66
2022/03/23 07:31:12;;;;;;;24.40;18.20;;;5.20;99.90;;;;;;5071665;28;20443;-66
2022/03/23 07:33:39;;;;;;;27.73;17.80;;;5.40;99.90;;;;;;5070765;28;20501;-66
2022/03/23 07:36:06;;;;;;;30.37;20.07;;;5.60;99.90;;;;;;5071664;28;20551;-66
2022/03/23 07:38:33;;;;;;;23.23;19.40;;;5.80;99.90;;;;;;5072486;28;20455;-65
2022/03/23 07:41:00;;;;;;;23.83;18.60;;;6.10;99.90;;;;;;5075724;28;20447;-65
2022/03/23 07:43:26;;;;;;;24.67;19.30;;;6.20;99.90;;;;;;5072686;28;20459;-65
2022/03/23 07:45:55;;;;;;;23.07;17.73;;;6.40;99.90;;;;;;5069359;28;20459;-66
2022/03/23 07:48:23;;;;;;;27.30;19.50;;;6.50;99.90;;;;;;5072439;28;20461;-66
2022/03/23 07:50:50;;;;;;;23.80;19.03;;;6.60;99.90;;;;;;5073898;28;20439;-66
2022/03/23 07:53:17;;;;;;;24.57;19.10;;;6.80;99.90;;;;;;5073666;28;20825;-65
2022/03/23 07:55:44;;;;;;;27.17;18.70;;;6.80;99.90;;;;;;5074104;28;20507;-66
2022/03/23 07:58:11;;;;;;;26.93;17.90;;;7.00;99.90;;;;;;5073980;28;20458;-66
2022/03/23 08:00:41;;;;;;;22.37;17.10;;;7.10;99.90;;;;;;5074896;28;20439;-66
2022/03/23 08:03:10;;;;;;;21.93;18.20;;;7.20;99.90;;;;;;5074477;28;20477;-66
2022/03/23 08:05:38;;;;;;;27.10;19.43;;;7.30;99.90;;;;;;5074580;28;20972;-66
2022/03/23 08:08:05;;;;;;;28.60;19.70;;;7.40;99.90;;;;;;5075367;28;20876;-65
2022/03/23 08:10:32;;;;;;;26.27;19.17;;;7.50;99.90;;;;;;5075996;28;20447;-65
2022/03/23 08:12:59;;;;;;;26.77;18.40;;;7.50;99.90;;;;;;5076334;28;20467;-66
2022/03/23 08:15:29;;;;;;;29.93;20.77;;;7.60;99.90;;;;;;5075873;28;21004;-66
2022/03/23 08:17:55;;;;;;;31.77;20.07;;;7.70;99.90;;;;;;5076297;28;20550;-66
2022/03/23 08:20:39;;;;;;;22.70;18.53;;;7.80;99.90;;;;;;5076643;28;20498;-65
2022/03/23 08:23:07;;;;;;;29.13;20.10;;;7.90;99.90;;;;;;5076336;28;20443;-66
2022/03/23 08:25:37;;;;;;;24.90;18.73;;;8.10;99.90;;;;;;5075866;28;20545;-66
2022/03/23 08:28:05;;;;;;;24.10;19.10;;;8.30;99.90;;;;;;5077168;28;20455;-66
2022/03/23 08:30:33;;;;;;;26.97;19.93;;;8.50;99.90;;;;;;5076747;28;20904;-66
2022/03/23 08:33:01;;;;;;;27.50;19.97;;;8.80;99.90;;;;;;5076191;28;20451;-66
2022/03/23 08:35:29;;;;;;;22.17;18.97;;;9.00;99.90;;;;;;5076211;28;20487;-65
2022/03/23 08:37:56;;;;;;;22.60;19.33;;;9.30;99.90;;;;;;5077626;28;20495;-66
2022/03/23 08:40:23;;;;;;;26.67;22.63;;;9.40;99.90;;;;;;5081742;28;20439;-66
2022/03/23 08:42:50;;;;;;;30.40;20.10;;;9.60;99.90;;;;;;5081574;28;20910;-67
2022/03/23 08:45:17;;;;;;;23.60;20.63;;;9.80;99.90;;;;;;5080768;28;20481;-66
2022/03/23 08:47:45;;;;;;;27.30;19.70;;;10.10;99.30;;;;;;5081725;28;20531;-66
2022/03/23 08:50:13;;;;;;;23.23;20.37;;;10.30;99.90;;;;;;5081655;28;20449;-66
2022/03/23 08:52:42;;;;;;;23.00;18.90;;;10.70;98.40;;;;;;5081825;28;20891;-66
2022/03/23 08:55:13;;;;;;;24.47;20.63;;;11.00;97.20;;;;;;5080716;28;20505;-66
2022/03/23 08:57:40;;;;;;;25.63;20.80;;;11.40;96.80;;;;;;5081735;28;20465;-66
2022/03/23 09:00:09;;;;;;;29.20;19.40;;;11.70;96.30;;;;;;5079800;28;20533;-66
2022/03/23 09:02:35;;;;;;;27.03;20.13;;;11.80;95.70;;;;;;5079480;28;20443;-65
2022/03/23 09:05:03;;;;;;;24.43;21.33;;;12.00;93.80;;;;;;5078283;28;20467;-65
2022/03/23 09:07:33;;;;;;;25.53;22.83;;;12.40;93.80;;;;;;5079522;28;20447;-65
2022/03/23 09:10:01;;;;;;;29.73;21.07;;;12.40;93.20;;;;;;5080746;28;20589;-65
2022/03/23 09:12:28;;;;;;;28.47;21.20;;;12.60;92.50;;;;;;5080746;28;20542;-65
2022/03/23 09:14:54;;;;;;;23.53;21.13;;;12.80;92.00;;;;;;5079159;28;20466;-65
2022/03/23 09:17:22;;;;;;;24.47;20.93;;;13.10;91.70;;;;;;5080461;28;20517;-65
2022/03/23 09:19:49;;;;;;;23.23;20.73;;;13.40;91.60;;;;;;5080723;28;20867;-66
2022/03/23 09:22:16;;;;;;;24.17;21.70;;;14.00;90.20;;;;;;5081108;28;20459;-65
2022/03/23 09:24:43;;;;;;;23.30;20.87;;;14.60;85.20;;;;;;5079536;28;20491;-65
2022/03/23 09:27:11;;;;;;;25.23;21.83;;;15.20;84.80;;;;;;5080505;28;20435;-66
2022/03/23 09:29:39;;;;;;;24.97;22.33;;;15.80;83.50;;;;;;5077963;28;20869;-65
2022/03/23 09:32:09;;;;;;;25.30;22.70;;;16.10;79.40;;;;;;5079181;28;20459;-66
2022/03/23 09:34:36;;;;;;;26.90;23.87;;;16.80;77.90;;;;;;5079145;28;20479;-66
2022/03/23 09:39:48;;;;;;;25.60;21.17;;;17.50;72.20;;;;;;5079465;28;20423;-66
2022/03/23 09:42:18;;;;;;;27.77;23.30;;;17.80;71.00;;;;;;5078799;28;20447;-66
2022/03/23 09:44:46;;;;;;;25.90;23.10;;;18.00;68.20;;;;;;5078799;28;20463;-66
2022/03/23 09:47:13;;;;;;;27.87;24.40;;;17.90;67.10;;;;;;5078753;28;20443;-66
2022/03/23 09:49:39;;;;;;;25.30;22.70;;;17.50;66.60;;;;;;5079501;28;20511;-65
2022/03/23 09:52:07;;;;;;;24.33;21.90;;;17.60;68.20;;;;;;5077650;28;20447;-66
2022/03/23 09:54:34;;;;;;;24.93;22.40;;;17.90;66.50;;;;;;5076475;28;20487;-66
2022/03/23 09:57:01;;;;;;;24.50;21.33;;;18.20;62.90;;;;;;5077640;28;20482;-66
2022/03/23 09:59:29;;;;;;;25.60;21.47;;;18.40;64.40;;;;;;5077416;28;20443;-66
2022/03/23 10:02:26;;;;;;;23.90;21.60;;;18.80;63.80;;;;;;5078466;28;20457;-66
2022/03/23 10:05:35;;;;;;;25.80;23.13;;;19.30;62.70;;;;;;5076965;28;20467;-66
2022/03/23 10:08:38;;;;;;;24.53;22.07;;;19.20;59.10;;;;;;5078232;28;20461;-66
2022/03/23 10:11:51;;;;;;;25.03;20.80;;;19.10;58.30;;;;;;5079310;28;20461;-65
2022/03/23 10:15:00;;;;;;;23.50;18.90;;;18.70;57.40;;;;;;5040864;28;20816;-66
2022/03/23 10:18:02;;;;;;;22.40;18.93;;;18.10;57.80;;;;;;5078201;28;20546;-66
2022/03/23 10:20:29;;;;;;;19.63;17.73;;;18.20;55.10;;;;;;5077862;28;20439;-66
2022/03/23 10:22:56;;;;;;;23.17;20.77;;;18.50;54.50;;;;;;5078846;28;20462;-66
2022/03/23 10:25:26;;;;;;;20.33;17.30;;;18.90;55.30;;;;;;5077517;28;20471;-66
2022/03/23 10:27:54;;;;;;;21.17;18.87;;;19.10;52.30;;;;;;5077376;28;20530;-66
2022/03/23 10:30:33;;;;;;;21.67;17.03;;;18.90;52.50;;;;;;5078120;28;20455;-66
2022/03/23 10:33:01;;;;;;;20.90;18.80;;;18.70;52.60;;;;;;5077642;28;20450;-66
2022/03/23 10:35:37;;;;;;;20.80;18.10;;;18.70;55.00;;;;;;5077290;28;20471;-67
2022/03/23 10:38:14;;;;;;;19.20;17.20;;;19.10;56.60;;;;;;5077150;28;20443;-66
2022/03/23 10:40:42;;;;;;;19.63;17.63;;;19.80;55.40;;;;;;5076438;28;20447;-66
2022/03/23 10:43:10;;;;;;;21.13;17.87;;;20.50;52.30;;;;;;5075663;28;20451;-66
2022/03/23 10:45:37;;;;;;;17.80;16.07;;;21.10;50.80;;;;;;5075121;28;21060;-66
2022/03/23 10:48:11;;;;;;;19.43;17.53;;;21.50;48.30;;;;;;5076225;28;20937;-66
2022/03/23 10:50:38;;;;;;;18.50;16.60;;;21.20;48.10;;;;;;5074460;28;20550;-66
2022/03/23 10:53:07;;;;;;;21.00;16.37;;;21.40;48.30;;;;;;5074949;28;20522;-66
2022/03/23 10:55:38;;;;;;;17.33;15.73;;;21.70;47.40;;;;;;5073881;28;20467;-66
2022/03/23 10:58:20;;;;;;;18.87;16.97;;;21.40;46.30;;;;;;5075097;28;20861;-66
2022/03/23 11:00:47;;;;;;;18.43;16.17;;;21.60;46.80;;;;;;5073863;28;20462;-66
2022/03/23 11:03:15;;;;;;;19.37;17.33;;;21.90;45.00;;;;;;5073308;28;20450;-66
2022/03/23 11:05:43;;;;;;;17.40;15.70;;;22.20;46.60;;;;;;5072873;28;20459;-67
2022/03/23 11:08:12;;;;;;;16.03;14.53;;;23.00;45.10;;;;;;5073689;28;20462;-66
2022/03/23 11:16:12;;;;;;;16.87;15.27;;;23.10;39.30;;;;;;5073722;28;20481;-66
2022/03/23 11:18:40;;;;;;;16.53;14.87;;;23.10;40.00;;;;;;5072790;28;20455;-67
2022/03/23 11:21:08;;;;;;;16.97;15.37;;;23.80;40.80;;;;;;5073793;28;20451;-67
2022/03/23 11:23:37;;;;;;;16.50;14.63;;;23.80;39.20;;;;;;5073463;28;20458;-66
2022/03/23 11:26:07;;;;;;;16.40;14.83;;;23.70;40.10;;;;;;5072719;28;20519;-66
2022/03/23 11:28:36;;;;;;;17.33;14.30;;;23.10;38.20;;;;;;5074234;28;20456;-66
2022/03/23 11:31:05;;;;;;;14.00;12.70;;;22.90;37.70;;;;;;5073830;28;20945;-67
2022/03/23 11:33:34;;;;;;;15.30;13.77;;;23.40;38.70;;;;;;5073336;28;20458;-67
2022/03/23 11:36:04;;;;;;;15.53;14.10;;;24.40;37.50;;;;;;5073424;28;20650;-67
2022/03/23 11:38:33;;;;;;;15.90;14.50;;;25.30;36.80;;;;;;5074122;28;20449;-67
2022/03/23 11:41:01;;;;;;;14.57;13.20;;;25.90;37.20;;;;;;5074680;28;20479;-67
2022/03/23 11:43:32;;;;;;;15.60;14.20;;;26.10;35.80;;;;;;5073946;28;20446;-64
2022/03/23 11:46:00;;;;;;;14.60;13.17;;;25.60;35.70;;;;;;5073055;28;20510;-66
2022/03/23 11:48:52;;;;;;;38.23;14.43;;;24.60;35.70;;;;;;5074291;28;20451;-66
2022/03/23 11:51:43;;;;;;;15.13;13.83;;;25.30;34.50;;;;;;5074636;28;20438;-66
2022/03/23 11:54:17;;;;;;;13.57;12.37;;;25.10;34.30;;;;;;5073105;28;20822;-66
2022/03/23 11:56:53;;;;;;;13.97;12.07;;;25.50;34.60;;;;;;5072366;28;20482;-67
2022/03/23 11:59:22;;;;;;;14.30;12.10;;;26.20;35.70;;;;;;5072166;28;20504;-66
2022/03/23 12:01:51;;;;;;;16.07;13.60;;;27.10;33.80;;;;;;5071150;28;20439;-67
2022/03/23 12:04:19;;;;;;;14.30;12.77;;;25.90;34.60;;;;;;5070899;28;20467;-66
2022/03/23 12:06:56;;;;;;;15.00;13.60;;;25.10;35.10;;;;;;5072563;28;20628;-66
2022/03/23 12:09:31;;;;;;;14.87;13.30;;;24.80;34.70;;;;;;5074417;28;20439;-66
2022/03/23 12:11:58;;;;;;;14.57;13.27;;;24.80;34.60;;;;;;5073978;28;20446;-66
2022/03/23 12:14:27;;;;;;;15.30;13.87;;;24.30;35.70;;;;;;5070268;28;20462;-66
2022/03/23 12:17:08;;;;;;;17.37;13.40;;;24.30;34.90;;;;;;5072000;28;20478;-67
2022/03/23 12:20:12;;;;;;;16.63;12.93;;;25.50;35.10;;;;;;5072968;28;20469;-66
2022/03/23 12:23:16;;;;;;;14.73;12.47;;;26.50;35.40;;;;;;5069162;28;20459;-67
2022/03/23 12:26:02;;;;;;;14.60;13.27;;;27.30;32.50;;;;;;5071548;28;20459;-66
2022/03/23 12:28:35;;;;;;;16.90;15.30;;;26.10;32.80;;;;;;5072561;28;20454;-66
2022/03/23 12:31:08;;;;;;;15.03;13.63;;;25.40;33.90;;;;;;5072261;28;20445;-67
2022/03/23 12:33:59;;;;;;;16.43;14.93;;;25.00;35.20;;;;;;5071623;28;20937;-67
2022/03/23 12:36:56;;;;;;;15.17;13.67;;;25.80;35.40;;;;;;5071510;28;21071;-67
2022/03/23 12:39:24;;;;;;;17.17;13.83;;;27.40;33.80;;;;;;5072489;28;20562;-67
2022/03/23 12:41:52;;;;;;;15.87;14.10;;;28.00;33.60;;;;;;5072812;28;20447;-66
2022/03/23 12:44:27;;;;;;;17.40;15.50;;;27.60;31.90;;;;;;5072261;28;20467;-66
2022/03/23 12:46:54;;;;;;;15.30;14.00;;;25.30;33.00;;;;;;5073428;28;20913;-67
2022/03/23 12:57:53;;;;;;;16.30;14.70;;;27.20;32.30;;;;;;5072171;28;20477;-66
2022/03/23 13:00:28;;;;;;;15.77;14.17;;;28.00;33.40;;;;;;5073625;28;20988;-66
2022/03/23 13:03:41;;;;;;;18.63;15.60;;;28.10;31.20;;;;;;5072468;28;20453;-66
2022/03/23 13:06:09;;;;;;;14.47;13.17;;;28.20;31.90;;;;;;5070187;28;21184;-67
2022/03/23 13:08:42;;;;;;;16.73;15.23;;;27.00;33.90;;;;;;5072411;28;20524;-66
2022/03/23 13:11:11;;;;;;;16.30;14.70;;;26.30;31.60;;;;;;5068784;28;20508;-66
2022/03/23 13:13:39;;;;;;;15.00;13.57;;;25.80;33.60;;;;;;5072092;28;20451;-66
2022/03/23 13:16:09;;;;;;;14.47;13.17;;;26.70;35.40;;;;;;5072298;28;20463;-67